This is the latest recevied weather packets stored in our database for station/object DO2TC-13. If no packets are shown the sender has not sent any weather packets the latest 10 day(s).
| Time | Temp. | Humidity | Pressure | Rain* | Wind** | Luminosity | Snow |
|---|---|---|---|---|---|---|---|
| 1777756576 | - | - | 1014.3 hPa | 0 mm | - | 0 W/m² | - |
| 1777754138 | 14.44° C | 66% | 1014.6 hPa | 0 mm | - | 0 W/m² | - |
| 1777751172 | 15.56° C | 58% | 1015 hPa | 0 mm | - | 0 W/m² | - |
| 1777749963 | 16.67° C | 54% | 1015.1 hPa | 0 mm | - | 0 W/m² | - |
| 1777747540 | 19.44° C | 46% | 1015 hPa | 0 mm | - | 2 W/m² | - |
| 1777745723 | 22.22° C | 36% | 1014.9 hPa | 0 mm | - | 14 W/m² | - |
| 1777745119 | 23.33° C | 34% | 1014.9 hPa | 0 mm | - | 21 W/m² | - |
| 1777743973 | 24.44° C | 31% | 1014.9 hPa | 0 mm | - | 44 W/m² | - |
| 1777740964 | 25.56° C | 29% | 1015 hPa | 0 mm | - | 135 W/m² | - |
| 1777733742 | 26.67° C | 28% | 1016.7 hPa | 0 mm | - | 471 W/m² | - |
| 1777728980 | 26.67° C | 30% | 1017.8 hPa | 0 mm | - | 662 W/m² | - |
| 1777728354 | 26.67° C | 30% | 1018 hPa | 0 mm | - | 683 W/m² | - |
| 1777719968 | 24.44° C | 33% | 1019.8 hPa | 0 mm | - | 837 W/m² | - |
| 1777713346 | 22.78° C | 39% | 1020.8 hPa | 0 mm | - | 736 W/m² | - |
| 1777711532 | 22.78° C | 38% | 1021 hPa | 0 mm | - | 681 W/m² | - |
| 1777710347 | 22.22° C | 40% | 1021.1 hPa | 0 mm | - | 637 W/m² | - |
| 1777706147 | 18.33° C | 49% | 1021.6 hPa | 0 mm | - | 452 W/m² | - |
| 1777703118 | 15° C | 56% | 1022 hPa | 0 mm | - | 301 W/m² | - |
| 1777702574 | 14.44° C | 58% | 1022.2 hPa | 0 mm | - | 272 W/m² | - |
| 1777701989 | - | - | 1022.1 hPa | 0 mm | - | 238 W/m² | - |
| 1777699548 | - | - | 1022.3 hPa | 0 mm | - | 139 W/m² | - |
| 1777695921 | - | - | 1022.5 hPa | 0 mm | - | 42 W/m² | - |
| 1777694790 | - | - | 1022.5 hPa | 0 mm | - | 23 W/m² | - |
| 1777692955 | - | - | 1022.6 hPa | 0 mm | - | 6 W/m² | - |
| 1777689928 | - | - | 1022.9 hPa | 0 mm | - | 0 W/m² | - |
* Rain latest hour (hover to see other rain measurements)
** Current wind speed in m/s (hover to see current wind gust speed)